createdAt,value
2022-11-20T00:01:33.858Z,100668.56
2022-11-20T00:04:01.687Z,100671.91
2022-11-20T00:06:29.957Z,100669.41
2022-11-20T00:09:01.051Z,100667.03
2022-11-20T00:11:32.344Z,100667.41
2022-11-20T00:14:02.203Z,100672.72
2022-11-20T00:16:32.944Z,100671.22
2022-11-20T00:19:00.111Z,100673.06
2022-11-20T00:21:35.525Z,100680.50
2022-11-20T00:24:07.044Z,100672.22
2022-11-20T00:26:34.158Z,100674.00
2022-11-20T00:29:02.236Z,100682.47
2022-11-20T00:31:31.259Z,100678.03
2022-11-20T00:33:58.282Z,100667.59
2022-11-20T00:36:29.361Z,100669.56
2022-11-20T00:38:59.383Z,100664.56
2022-11-20T00:41:28.961Z,100672.06
2022-11-20T00:43:56.999Z,100669.41
2022-11-20T00:46:27.951Z,100669.13
2022-11-20T00:48:55.212Z,100670.38
2022-11-20T00:51:25.952Z,100670.31
2022-11-20T00:53:55.504Z,100675.59
2022-11-20T00:56:22.522Z,100679.66
2022-11-20T00:58:50.369Z,100677.53
2022-11-20T01:01:26.500Z,100680.00
2022-11-20T01:03:57.833Z,100674.28
2022-11-20T01:06:27.392Z,100682.50
2022-11-20T01:08:57.711Z,100670.41
2022-11-20T01:11:28.488Z,100673.75
2022-11-20T01:13:59.582Z,100676.31
2022-11-20T01:16:37.895Z,100672.19
2022-11-20T01:19:14.801Z,100670.66
2022-11-20T01:21:47.083Z,100678.69
2022-11-20T01:24:35.335Z,100672.31
2022-11-20T01:27:02.331Z,100669.25
2022-11-20T01:29:32.075Z,100665.56
2022-11-20T01:31:59.241Z,100670.03
2022-11-20T01:34:28.777Z,100668.56
2022-11-20T01:36:55.891Z,100672.81
2022-11-20T01:39:26.126Z,100671.25
2022-11-20T01:42:31.099Z,100678.09
2022-11-20T01:45:03.187Z,100682.72
2022-11-20T01:47:48.059Z,100678.34
2022-11-20T01:50:29.942Z,100670.84
2022-11-20T01:53:07.155Z,100665.50
2022-11-20T01:55:41.049Z,100665.06
2022-11-20T01:58:08.452Z,100665.97
2022-11-20T02:00:36.048Z,100664.16
2022-11-20T02:03:10.014Z,100663.97
2022-11-20T02:05:42.086Z,100662.91
2022-11-20T02:08:09.199Z,100670.22
2022-11-20T02:10:36.589Z,100660.59
2022-11-20T02:13:22.982Z,100660.59
2022-11-20T02:15:50.572Z,100650.06
2022-11-20T02:18:20.543Z,100652.72
2022-11-20T02:20:53.041Z,100653.34
2022-11-20T02:23:40.530Z,100657.25
2022-11-20T02:26:13.265Z,100650.34
2022-11-20T02:28:40.494Z,100647.41
2022-11-20T02:31:07.519Z,100640.69
2022-11-20T02:33:37.032Z,100648.00
2022-11-20T02:36:06.672Z,100641.53
2022-11-20T02:38:36.203Z,100651.09
2022-11-20T02:41:03.278Z,100651.31
2022-11-20T02:43:30.267Z,100650.28
2022-11-20T02:45:57.372Z,100649.63
2022-11-20T02:48:30.211Z,100649.50
2022-11-20T02:51:00.883Z,100646.63
2022-11-20T02:53:27.958Z,100643.63
2022-11-20T02:55:54.999Z,100640.56
2022-11-20T02:58:24.976Z,100638.41
2022-11-20T03:00:53.427Z,100644.69
2022-11-20T03:03:21.002Z,100643.41
2022-11-20T03:05:47.979Z,100643.06
2022-11-20T03:08:14.999Z,100647.88
2022-11-20T03:10:46.514Z,100650.38
2022-11-20T03:13:13.566Z,100649.28
2022-11-20T03:15:40.555Z,100642.78
2022-11-20T03:18:07.620Z,100643.78
2022-11-20T03:20:35.526Z,100647.13
2022-11-20T03:23:05.328Z,100645.09
2022-11-20T03:25:32.477Z,100646.44
2022-11-20T03:27:59.456Z,100644.09
2022-11-20T03:30:30.561Z,100637.19
2022-11-20T03:33:00.816Z,100638.13
2022-11-20T03:35:27.986Z,100642.16
2022-11-20T03:37:55.047Z,100640.16
2022-11-20T03:40:22.061Z,100634.69
2022-11-20T03:42:49.191Z,100636.31
2022-11-20T03:45:18.729Z,100630.25
2022-11-20T03:47:48.481Z,100633.88
2022-11-20T03:50:16.178Z,100641.66
2022-11-20T03:52:43.732Z,100638.63
2022-11-20T03:55:13.274Z,100640.56
2022-11-20T03:57:40.386Z,100637.34
2022-11-20T04:00:08.111Z,100640.75
2022-11-20T04:02:35.298Z,100642.38
2022-11-20T04:05:04.928Z,100642.16
2022-11-20T04:07:32.439Z,100645.59
2022-11-20T04:09:59.519Z,100635.53
2022-11-20T04:12:26.514Z,100634.63
2022-11-20T04:14:59.025Z,100632.34
2022-11-20T04:17:26.045Z,100635.31
2022-11-20T04:19:55.124Z,100624.34
2022-11-20T04:22:27.202Z,100629.97
2022-11-20T04:24:54.326Z,100631.22
2022-11-20T04:27:21.619Z,100626.97
2022-11-20T04:29:50.668Z,100629.84
2022-11-20T04:32:20.258Z,100628.97
2022-11-20T04:34:47.266Z,100619.22
2022-11-20T04:37:14.255Z,100625.75
2022-11-20T04:39:47.553Z,100622.81
2022-11-20T04:42:29.919Z,100617.38
2022-11-20T04:45:00.836Z,100620.91
2022-11-20T04:47:27.840Z,100617.75
2022-11-20T04:49:55.050Z,100618.50
2022-11-20T04:52:22.040Z,100615.53
2022-11-20T04:54:49.099Z,100613.09
2022-11-20T04:57:18.660Z,100619.41
2022-11-20T04:59:45.718Z,100609.44
2022-11-20T05:02:13.266Z,100608.16
2022-11-20T05:04:40.285Z,100606.28
2022-11-20T05:07:07.324Z,100599.28
2022-11-20T05:09:34.549Z,100597.59
2022-11-20T05:12:01.551Z,100599.22
2022-11-20T05:14:28.620Z,100588.78
2022-11-20T05:16:55.717Z,100587.78
2022-11-20T05:19:23.071Z,100590.13
2022-11-20T05:21:50.291Z,100591.06
2022-11-20T05:24:19.743Z,100593.28
2022-11-20T05:26:46.817Z,100588.44
2022-11-20T05:29:14.279Z,100595.25
2022-11-20T05:31:42.511Z,100592.03
2022-11-20T05:34:09.783Z,100601.72
2022-11-20T05:36:36.791Z,100602.84
2022-11-20T05:39:04.247Z,100598.78
2022-11-20T05:41:31.442Z,100607.00
2022-11-20T05:43:59.341Z,100602.88
2022-11-20T05:46:29.008Z,100585.31
2022-11-20T05:48:58.430Z,100597.13
2022-11-20T05:51:26.347Z,100600.91
2022-11-20T05:53:53.449Z,100600.19
2022-11-20T05:56:22.827Z,100602.31
2022-11-20T05:58:50.494Z,100603.84
2022-11-20T06:01:25.531Z,100601.78
2022-11-20T06:03:58.023Z,100605.50
2022-11-20T06:06:27.043Z,100609.25
2022-11-20T06:08:55.106Z,100613.88
2022-11-20T06:11:22.614Z,100612.44
2022-11-20T06:13:49.765Z,100608.72
2022-11-20T06:16:20.409Z,100617.78
2022-11-20T06:18:47.841Z,100617.69
2022-11-20T06:21:18.812Z,100616.44
2022-11-20T06:23:46.498Z,100622.41
2022-11-20T06:26:26.467Z,100610.38
2022-11-20T06:28:54.704Z,100617.63
2022-11-20T06:31:24.658Z,100607.66
2022-11-20T06:33:52.222Z,100609.50
2022-11-20T06:36:22.646Z,100601.97
2022-11-20T06:38:50.079Z,100607.47
2022-11-20T06:41:20.645Z,100599.78
2022-11-20T06:43:48.271Z,100596.03
2022-11-20T06:46:18.683Z,100605.53
2022-11-20T06:48:46.574Z,100604.34
2022-11-20T06:51:14.029Z,100598.59
2022-11-20T06:53:41.314Z,100605.41
2022-11-20T06:56:08.781Z,100603.09
2022-11-20T06:58:37.163Z,100595.75
2022-11-20T07:01:08.439Z,100602.31
2022-11-20T07:03:35.679Z,100595.69
2022-11-20T07:06:04.161Z,100596.63
2022-11-20T07:08:35.053Z,100587.84
2022-11-20T07:11:08.012Z,100592.66
2022-11-20T07:13:35.619Z,100583.84
2022-11-20T07:16:07.965Z,100582.28
2022-11-20T07:18:35.264Z,100589.84
2022-11-20T07:21:08.655Z,100594.34
2022-11-20T07:23:42.364Z,100594.06
2022-11-20T07:26:12.148Z,100601.84
2022-11-20T07:28:39.604Z,100605.00
2022-11-20T07:31:12.342Z,100594.00
2022-11-20T07:33:41.629Z,100591.53
2022-11-20T07:36:08.966Z,100596.06
2022-11-20T07:38:36.050Z,100586.72
2022-11-20T07:41:03.055Z,100585.81
2022-11-20T07:43:30.304Z,100582.88
2022-11-20T07:45:58.765Z,100587.13
2022-11-20T07:48:26.820Z,100586.19
2022-11-20T07:50:57.712Z,100586.38
2022-11-20T07:53:25.258Z,100576.81
2022-11-20T07:55:55.313Z,100575.00
2022-11-20T07:58:23.052Z,100571.28
2022-11-20T08:00:50.377Z,100573.72
2022-11-20T08:03:24.596Z,100569.16
2022-11-20T08:05:52.478Z,100565.19
2022-11-20T08:08:19.692Z,100563.66
2022-11-20T08:10:49.130Z,100576.84
2022-11-20T08:13:34.944Z,100570.25
2022-11-20T08:16:02.348Z,100569.47
2022-11-20T08:18:31.883Z,100568.38
2022-11-20T08:21:04.957Z,100577.91
2022-11-20T08:23:32.056Z,100573.72
2022-11-20T08:25:59.054Z,100570.97
2022-11-20T08:28:26.026Z,100567.53
2022-11-20T08:30:58.522Z,100572.75
2022-11-20T08:33:25.545Z,100573.53
2022-11-20T08:35:54.728Z,100564.50
2022-11-20T08:38:21.742Z,100554.75
2022-11-20T08:41:08.784Z,100554.22
2022-11-20T08:43:35.781Z,100554.22
2022-11-20T08:46:02.930Z,100552.44
2022-11-20T08:48:30.039Z,100550.34
2022-11-20T08:51:00.517Z,100553.09
2022-11-20T08:53:28.860Z,100558.69
2022-11-20T08:55:59.195Z,100550.34
2022-11-20T08:58:27.159Z,100544.44
2022-11-20T09:00:54.729Z,100544.44
2022-11-20T09:03:21.791Z,100545.00
2022-11-20T09:05:48.814Z,100540.59
2022-11-20T09:08:16.010Z,100541.25
2022-11-20T09:10:43.007Z,100531.25
2022-11-20T09:13:10.124Z,100526.16
2022-11-20T09:15:37.060Z,100532.63
2022-11-20T09:18:07.518Z,100534.41
2022-11-20T09:20:37.192Z,100532.63
2022-11-20T09:23:04.234Z,100533.97
2022-11-20T09:25:31.319Z,100536.19
2022-11-20T09:28:01.196Z,100528.72
2022-11-20T09:30:28.858Z,100538.81
2022-11-20T09:32:55.995Z,100526.56
2022-11-20T09:35:23.280Z,100529.88
2022-11-20T09:37:50.531Z,100521.72
2022-11-20T09:40:30.463Z,100527.06
2022-11-20T09:43:36.340Z,100535.09
2022-11-20T09:46:15.859Z,100521.06
2022-11-20T09:49:37.873Z,100517.31
2022-11-20T09:52:28.215Z,100513.38
2022-11-20T09:54:58.836Z,100515.25
2022-11-20T09:57:43.413Z,100518.16
2022-11-20T10:00:17.996Z,100521.91
2022-11-20T10:03:32.365Z,100517.22
2022-11-20T10:06:04.675Z,100521.63
2022-11-20T10:08:50.356Z,100519.69
2022-11-20T10:11:45.552Z,100512.69
2022-11-20T10:14:52.546Z,100516.56
2022-11-20T10:18:04.301Z,100518.63
2022-11-20T10:20:43.776Z,100512.69
2022-11-20T10:23:57.816Z,100516.94
2022-11-20T10:26:53.851Z,100505.41
2022-11-20T10:29:36.362Z,100501.28
2022-11-20T10:32:17.389Z,100499.56
2022-11-20T10:34:58.389Z,100495.78
2022-11-20T10:37:31.810Z,100494.13
2022-11-20T10:40:52.253Z,100499.22
2022-11-20T10:43:34.300Z,100501.28
2022-11-20T10:46:13.467Z,100500.59
2022-11-20T10:48:45.155Z,100492.88
2022-11-20T10:51:46.478Z,100494.97
2022-11-20T10:54:33.739Z,100490.03
2022-11-20T10:57:32.471Z,100501.81
2022-11-20T11:00:07.849Z,100496.59
2022-11-20T11:02:50.514Z,100494.94
2022-11-20T11:05:49.792Z,100496.59
2022-11-20T11:08:20.294Z,100493.78
2022-11-20T11:11:08.365Z,100488.09
2022-11-20T11:13:35.331Z,100487.13
2022-11-20T11:16:03.974Z,100488.91
2022-11-20T11:18:37.232Z,100478.63
2022-11-20T11:21:06.405Z,100480.41
2022-11-20T11:23:41.091Z,100490.16
2022-11-20T11:26:22.531Z,100480.53
2022-11-20T11:29:19.008Z,100478.19
2022-11-20T11:31:45.998Z,100477.59
2022-11-20T11:34:16.465Z,100479.31
2022-11-20T11:36:50.645Z,100483.16
2022-11-20T11:39:22.489Z,100475.72
2022-11-20T11:41:50.413Z,100485.84
2022-11-20T11:44:50.987Z,100482.28
2022-11-20T11:47:49.418Z,100469.00
2022-11-20T11:50:17.655Z,100481.75
2022-11-20T11:52:57.949Z,100482.88
2022-11-20T11:55:43.532Z,100467.72
2022-11-20T11:58:41.938Z,100469.94
2022-11-20T12:01:30.814Z,100468.03
2022-11-20T12:04:18.093Z,100471.00
2022-11-20T12:06:53.651Z,100465.81
2022-11-20T12:09:29.550Z,100472.13
2022-11-20T12:12:40.148Z,100471.59
2022-11-20T12:15:30.165Z,100461.84
2022-11-20T12:17:59.748Z,100457.19
2022-11-20T12:20:45.290Z,100458.81
2022-11-20T12:23:51.479Z,100453.88
2022-11-20T12:26:54.536Z,100446.19
2022-11-20T12:29:52.166Z,100440.84
2022-11-20T12:32:47.115Z,100443.00
2022-11-20T12:35:33.469Z,100437.25
2022-11-20T12:38:41.161Z,100435.41
2022-11-20T12:41:39.679Z,100433.13
2022-11-20T12:44:47.134Z,100429.25
2022-11-20T12:47:34.806Z,100420.09
2022-11-20T12:50:42.824Z,100422.63
2022-11-20T12:53:21.494Z,100406.22
2022-11-20T12:56:29.022Z,100415.13
2022-11-20T12:59:24.986Z,100411.69
2022-11-20T13:02:10.756Z,100415.81
2022-11-20T13:04:37.692Z,100404.13
2022-11-20T13:07:11.013Z,100408.13
2022-11-20T13:09:47.981Z,100397.72
2022-11-20T13:12:25.805Z,100400.44
2022-11-20T13:15:18.861Z,100400.97
2022-11-20T13:18:09.139Z,100395.72
2022-11-20T13:20:41.937Z,100388.00
2022-11-20T13:23:08.973Z,100391.91
2022-11-20T13:25:39.831Z,100388.28
2022-11-20T13:28:31.160Z,100382.69
2022-11-20T13:30:59.746Z,100385.94
2022-11-20T13:33:37.430Z,100381.44
2022-11-20T13:36:22.566Z,100383.31
2022-11-20T13:38:56.245Z,100380.06
2022-11-20T13:41:28.951Z,100380.69
2022-11-20T13:44:23.378Z,100375.78
2022-11-20T13:46:50.470Z,100379.31
2022-11-20T13:49:45.423Z,100376.31
2022-11-20T13:52:49.442Z,100373.72
2022-11-20T13:55:34.712Z,100372.78
2022-11-20T13:58:29.508Z,100364.47
2022-11-20T14:01:02.593Z,100370.47
2022-11-20T14:06:32.616Z,100371.16
2022-11-20T14:09:00.750Z,100373.91
2022-11-20T14:11:32.426Z,100365.78
2022-11-20T14:14:14.189Z,100368.84
2022-11-20T14:16:41.365Z,100360.72
2022-11-20T14:19:31.764Z,100366.47
2022-11-20T14:22:19.195Z,100365.78
2022-11-20T14:24:50.233Z,100367.78
2022-11-20T14:27:22.341Z,100375.53
2022-11-20T14:29:51.266Z,100376.25
2022-11-20T14:32:31.544Z,100365.53
2022-11-20T14:35:09.587Z,100373.66
2022-11-20T14:37:40.791Z,100365.28
2022-11-20T14:40:29.883Z,100366.94
2022-11-20T14:42:59.153Z,100358.00
2022-11-20T14:45:29.285Z,100362.81
2022-11-20T14:47:59.385Z,100364.34
2022-11-20T14:50:30.353Z,100351.56
2022-11-20T14:53:02.403Z,100354.88
2022-11-20T14:55:38.275Z,100348.09
2022-11-20T14:58:29.187Z,100350.72
2022-11-20T15:01:08.589Z,100349.06
2022-11-20T15:03:42.037Z,100343.31
2022-11-20T15:06:16.187Z,100337.38
2022-11-20T15:08:53.151Z,100338.94
2022-11-20T15:11:33.184Z,100332.34
2022-11-20T15:14:07.056Z,100344.41
2022-11-20T15:16:34.533Z,100345.50
2022-11-20T15:19:04.563Z,100339.72
2022-11-20T15:21:31.564Z,100330.81
2022-11-20T15:23:59.378Z,100331.78
2022-11-20T15:26:29.075Z,100329.44
2022-11-20T15:28:56.161Z,100333.13
2022-11-20T15:31:26.426Z,100330.66
2022-11-20T15:33:53.498Z,100331.19
2022-11-20T15:36:20.665Z,100330.66
2022-11-20T15:38:47.643Z,100321.38
2022-11-20T15:41:14.648Z,100335.63
2022-11-20T15:43:41.639Z,100330.44
2022-11-20T15:46:16.832Z,100325.34
2022-11-20T15:48:53.135Z,100327.66
2022-11-20T15:51:27.694Z,100327.06
2022-11-20T15:53:57.098Z,100321.09
2022-11-20T15:56:24.898Z,100322.31
2022-11-20T15:58:51.882Z,100320.00
2022-11-20T16:01:22.812Z,100314.91
2022-11-20T16:03:50.249Z,100315.31
2022-11-20T16:06:19.699Z,100312.84
2022-11-20T16:08:49.230Z,100315.31
2022-11-20T16:11:20.359Z,100314.75
2022-11-20T16:14:06.252Z,100311.06
2022-11-20T16:16:39.591Z,100309.16
2022-11-20T16:19:06.586Z,100312.31
2022-11-20T16:21:33.813Z,100313.09
2022-11-20T16:24:07.356Z,100308.03
2022-11-20T16:26:36.614Z,100312.03
2022-11-20T16:29:06.223Z,100303.94
2022-11-20T16:31:34.610Z,100303.13
2022-11-20T16:34:23.407Z,100307.06
2022-11-20T16:36:50.561Z,100304.22
2022-11-20T16:39:23.969Z,100310.38
2022-11-20T16:41:51.282Z,100304.59
2022-11-20T16:44:18.282Z,100306.41
2022-11-20T16:46:45.238Z,100294.47
2022-11-20T16:49:14.535Z,100304.75
2022-11-20T16:51:42.862Z,100307.22
2022-11-20T16:54:10.817Z,100302.69
2022-11-20T16:56:38.272Z,100310.78
2022-11-20T16:59:05.911Z,100307.91
2022-11-20T17:01:33.161Z,100307.22
2022-11-20T17:04:03.353Z,100304.88
2022-11-20T17:06:36.100Z,100302.69
2022-11-20T17:09:06.105Z,100298.84
2022-11-20T17:11:36.052Z,100294.44
2022-11-20T17:14:07.501Z,100302.72
2022-11-20T17:16:38.855Z,100304.34
2022-11-20T17:19:05.988Z,100304.59
2022-11-20T17:21:36.210Z,100296.34
2022-11-20T17:24:06.662Z,100293.63
2022-11-20T17:26:35.164Z,100286.22
2022-11-20T17:29:06.995Z,100298.31
2022-11-20T17:31:35.058Z,100294.47
2022-11-20T17:34:02.621Z,100295.16
2022-11-20T17:36:33.263Z,100298.44
2022-11-20T17:39:00.715Z,100290.34
2022-11-20T17:41:30.318Z,100294.06
2022-11-20T17:44:00.441Z,100285.81
2022-11-20T17:46:33.471Z,100286.50
2022-11-20T17:49:02.128Z,100286.22
2022-11-20T17:51:33.307Z,100286.91
2022-11-20T17:54:05.311Z,100275.94
2022-11-20T17:56:52.723Z,100275.53
2022-11-20T17:59:22.645Z,100274.97
2022-11-20T18:01:49.842Z,100270.00
2022-11-20T18:04:17.328Z,100264.69
2022-11-20T18:06:44.710Z,100268.91
2022-11-20T18:09:12.427Z,100262.75
2022-11-20T18:11:43.170Z,100258.47
2022-11-20T18:14:32.562Z,100267.78
2022-11-20T18:19:40.944Z,100255.75
2022-11-20T18:22:13.768Z,100254.53
2022-11-20T18:24:42.191Z,100259.06
2022-11-20T18:27:20.707Z,100260.41
2022-11-20T18:29:51.923Z,100256.03
2022-11-20T18:32:22.848Z,100267.28
2022-11-20T18:34:51.370Z,100263.88
2022-11-20T18:37:19.071Z,100260.56
2022-11-20T18:39:50.713Z,100264.81
2022-11-20T18:42:36.719Z,100258.09
2022-11-20T18:45:07.409Z,100253.69
2022-11-20T18:47:40.081Z,100259.03
2022-11-20T18:50:11.903Z,100265.91
2022-11-20T18:52:44.558Z,100258.38
2022-11-20T18:55:12.938Z,100270.03
2022-11-20T18:57:40.134Z,100267.56
2022-11-20T19:00:11.088Z,100267.41
2022-11-20T19:02:42.251Z,100266.72
2022-11-20T19:05:14.697Z,100269.47
2022-11-20T19:07:42.727Z,100260.00
2022-11-20T19:10:10.165Z,100260.84
2022-11-20T19:12:37.218Z,100263.41
2022-11-20T19:15:04.991Z,100260.81
2022-11-20T19:17:33.907Z,100257.25
2022-11-20T19:20:01.005Z,100259.34
2022-11-20T19:22:28.196Z,100261.09
2022-11-20T19:24:55.241Z,100258.34
2022-11-20T19:27:22.289Z,100257.53
2022-11-20T19:29:57.665Z,100260.66
2022-11-20T19:32:25.542Z,100247.38
2022-11-20T19:34:53.777Z,100252.19
2022-11-20T19:37:20.821Z,100256.59
2022-11-20T19:39:48.332Z,100265.66
2022-11-20T19:42:15.563Z,100262.47
2022-11-20T19:44:42.834Z,100253.84
2022-11-20T19:47:14.210Z,100257.13
2022-11-20T19:49:41.966Z,100253.56
2022-11-20T19:52:09.431Z,100254.66
2022-11-20T19:54:37.058Z,100252.75
2022-11-20T19:57:04.033Z,100255.06
2022-11-20T19:59:31.209Z,100247.50
2022-11-20T20:01:58.396Z,100247.53
2022-11-20T20:04:27.552Z,100255.19
2022-11-20T20:06:54.656Z,100239.56
2022-11-20T20:09:23.844Z,100247.41
2022-11-20T20:11:50.997Z,100252.88
2022-11-20T20:14:20.556Z,100256.16
2022-11-20T20:16:47.803Z,100246.28
2022-11-20T20:19:16.973Z,100246.13
2022-11-20T20:21:44.674Z,100243.56
2022-11-20T20:24:14.630Z,100251.91
2022-11-20T20:26:42.211Z,100248.59
2022-11-20T20:29:09.376Z,100252.41
2022-11-20T20:31:36.451Z,100256.53
2022-11-20T20:34:05.491Z,100252.22
2022-11-20T20:36:32.641Z,100251.88
2022-11-20T20:39:04.609Z,100249.97
2022-11-20T20:41:32.268Z,100240.66
2022-11-20T20:44:18.037Z,100255.19
2022-11-20T20:46:45.195Z,100255.75
2022-11-20T20:49:12.436Z,100254.09
2022-11-20T20:51:39.457Z,100244.84
2022-11-20T20:54:06.591Z,100241.00
2022-11-20T20:56:33.630Z,100248.19
2022-11-20T20:59:00.722Z,100241.22
2022-11-20T21:01:28.892Z,100237.06
2022-11-20T21:03:57.039Z,100244.13
2022-11-20T21:06:24.558Z,100245.22
2022-11-20T21:08:51.622Z,100241.03
2022-11-20T21:11:20.296Z,100236.63
2022-11-20T21:13:48.993Z,100234.88
2022-11-20T21:16:18.176Z,100233.09
2022-11-20T21:18:45.550Z,100234.78
2022-11-20T21:21:32.706Z,100230.56
2022-11-20T21:23:59.909Z,100240.72
2022-11-20T21:26:27.312Z,100236.53
2022-11-20T21:28:54.460Z,100232.78
2022-11-20T21:31:27.359Z,100238.19
2022-11-20T21:33:58.833Z,100242.97
2022-11-20T21:36:29.048Z,100240.75
2022-11-20T21:38:59.453Z,100240.84
2022-11-20T21:41:30.441Z,100234.19
2022-11-20T21:44:29.647Z,100234.56
2022-11-20T21:46:48.708Z,100234.63
2022-11-20T21:49:18.655Z,100237.09
2022-11-20T21:51:45.668Z,100241.22
2022-11-20T21:54:12.840Z,100225.59
2022-11-20T21:56:40.028Z,100232.88
2022-11-20T21:59:06.995Z,100221.00
2022-11-20T22:01:34.077Z,100220.88
2022-11-20T22:04:02.874Z,100226.63
2022-11-20T22:06:36.538Z,100221.97
2022-11-20T22:09:06.654Z,100219.44
2022-11-20T22:11:33.725Z,100227.94
2022-11-20T22:14:19.438Z,100224.53
2022-11-20T22:16:47.266Z,100217.97
2022-11-20T22:19:24.316Z,100218.03
2022-11-20T22:21:51.317Z,100210.84
2022-11-20T22:24:23.314Z,100214.59
2022-11-20T22:26:53.410Z,100215.22
2022-11-20T22:29:23.835Z,100210.22
2022-11-20T22:31:53.994Z,100220.34
2022-11-20T22:34:21.274Z,100218.81
2022-11-20T22:36:48.526Z,100214.19
2022-11-20T22:39:15.638Z,100228.09
2022-11-20T22:41:42.671Z,100220.28
2022-11-20T22:44:13.532Z,100227.72
2022-11-20T22:46:40.601Z,100219.19
2022-11-20T22:49:08.919Z,100211.16
2022-11-20T22:51:39.362Z,100223.94
2022-11-20T22:54:07.548Z,100211.81
2022-11-20T22:56:35.212Z,100211.16
2022-11-20T22:59:04.564Z,100203.06
2022-11-20T23:01:37.923Z,100211.97
2022-11-20T23:04:10.829Z,100208.00
2022-11-20T23:07:00.414Z,100198.97
2022-11-20T23:09:29.751Z,100209.38
2022-11-20T23:11:56.710Z,100197.31
2022-11-20T23:14:28.317Z,100192.81
2022-11-20T23:16:55.395Z,100188.38
2022-11-20T23:19:22.712Z,100194.75
2022-11-20T23:21:49.770Z,100189.19
2022-11-20T23:24:16.796Z,100191.41
2022-11-20T23:26:45.265Z,100188.53
2022-11-20T23:29:13.002Z,100189.50
2022-11-20T23:31:43.447Z,100189.38
2022-11-20T23:34:10.676Z,100189.66
2022-11-20T23:36:37.665Z,100184.72
2022-11-20T23:39:08.672Z,100190.44
2022-11-20T23:41:35.693Z,100189.09
2022-11-20T23:44:02.772Z,100179.47
2022-11-20T23:46:29.761Z,100188.44
2022-11-20T23:48:56.716Z,100181.94
2022-11-20T23:51:23.768Z,100181.69
2022-11-20T23:53:50.820Z,100188.41
2022-11-20T23:56:17.826Z,100196.03
2022-11-20T23:58:44.887Z,100190.94
